Terminal Aerodrome Forecast
Issued by NWS Green Bay, WI

Home | Current Version | Previous Version | Text Only | Print | Product List | Glossary On
Versions: 1 2 3 4 5 6 7 8 9 10 11 12 13 14 15 16 17 18 19 20 21 22 23 24 25 26 27 28 29 30 31 32 33 34
000
FTUS43 KGRB 280520
TAFGRB
TAF
KGRB 280520Z 2806/2906 18005KT P6SM SCT150
      TEMPO 2808/2812 5SM BR
     FM281200 19003KT P6SM SCT050 BKN100
     FM281500 21007KT P6SM SCT035 OVC080 PROB30 2816/2822 -RA OVC035
     FM282200 15007KT 6SM RA BKN022 OVC035
     FM290200 VRB03KT 2SM RA BR BKN012 OVC020=

USA.gov is the U.S. government's official web portal to all federal, state and local government web resources and services.